Time;durP1;ratioP1;P1;durP2;ratioP2;P2;SDS_P1;SDS_P2;PMS_P1;PMS_P2;Temp;Humidity;BMP_temperature;BMP_pressure;BME280_temperature;BME280_humidity;BME280_pressure;Samples;Min_cycle;Max_cycle;Signal;HPM_P1;HPM_P2
2021/06/07 00:01:59;;;;;;;28.25;25.85;;;17.10;99.90;;;;;;4963591;28;20198;-83
2021/06/07 00:04:28;;;;;;;28.17;24.88;;;17.10;99.90;;;;;;4964145;29;20215;-82
2021/06/07 00:06:55;;;;;;;30.85;27.92;;;17.10;99.90;;;;;;4945874;29;20344;-82
2021/06/07 00:09:24;;;;;;;28.50;25.83;;;17.10;99.90;;;;;;4963297;29;20251;-82
2021/06/07 00:11:54;;;;;;;26.08;23.60;;;17.30;99.90;;;;;;4928502;29;20222;-83
2021/06/07 00:14:25;;;;;;;28.50;22.88;;;17.40;99.90;;;;;;4945937;29;20681;-82
2021/06/07 00:16:52;;;;;;;25.38;22.90;;;17.30;99.90;;;;;;4962980;28;20222;-83
2021/06/07 00:19:21;;;;;;;28.25;25.45;;;17.30;99.90;;;;;;4962441;28;20681;-83
2021/06/07 00:21:48;;;;;;;25.60;23.27;;;17.30;99.90;;;;;;4962725;28;20684;-83
2021/06/07 00:24:16;;;;;;;26.98;24.52;;;17.10;99.90;;;;;;4962594;28;20294;-82
2021/06/07 00:26:45;;;;;;;25.38;22.95;;;17.20;99.90;;;;;;4962984;28;20701;-83
2021/06/07 00:29:12;;;;;;;26.42;23.75;;;17.20;99.90;;;;;;4961279;28;20282;-83
2021/06/07 00:31:39;;;;;;;26.48;24.05;;;17.00;99.90;;;;;;4961976;28;20772;-82
2021/06/07 00:34:07;;;;;;;25.10;22.63;;;17.10;99.90;;;;;;4962541;28;20674;-83
2021/06/07 00:36:36;;;;;;;26.00;23.55;;;17.10;99.90;;;;;;4961905;28;20305;-83
2021/06/07 00:39:06;;;;;;;26.15;23.50;;;17.10;99.90;;;;;;4962414;28;20194;-82
2021/06/07 00:41:32;;;;;;;28.10;25.52;;;17.20;99.90;;;;;;4961134;29;20206;-82
2021/06/07 00:44:07;;;;;;;28.52;25.33;;;17.20;99.90;;;;;;4960837;29;20225;-82
2021/06/07 00:46:34;;;;;;;30.85;24.15;;;17.20;99.90;;;;;;4962017;28;20233;-82
2021/06/07 00:49:01;;;;;;;25.88;23.48;;;17.20;99.90;;;;;;4945512;29;20191;-82
2021/06/07 00:51:28;;;;;;;27.83;25.15;;;17.10;99.90;;;;;;4944733;28;20724;-82
2021/06/07 00:53:55;;;;;;;28.92;25.92;;;17.10;99.90;;;;;;4960564;28;20196;-82
2021/06/07 00:56:22;;;;;;;27.80;25.23;;;17.10;99.90;;;;;;4961903;28;20233;-83
2021/06/07 00:58:50;;;;;;;26.17;23.77;;;17.00;99.90;;;;;;4954077;29;20686;-83
2021/06/07 01:01:20;;;;;;;28.50;25.67;;;16.90;99.90;;;;;;4943094;29;20627;-83
2021/06/07 01:03:49;;;;;;;26.65;23.85;;;16.80;99.90;;;;;;4924136;29;20205;-83
2021/06/07 01:06:15;;;;;;;26.95;24.30;;;16.80;99.90;;;;;;4927340;29;20227;-83
2021/06/07 01:08:43;;;;;;;28.05;25.45;;;16.90;99.90;;;;;;4942880;29;20219;-83
2021/06/07 01:11:10;;;;;;;27.92;25.33;;;16.80;99.90;;;;;;4952656;28;20242;-83
2021/06/07 01:13:37;;;;;;;28.27;25.67;;;16.70;99.90;;;;;;4962199;29;20221;-83
2021/06/07 01:16:05;;;;;;;26.90;23.95;;;16.60;99.90;;;;;;4961756;28;20218;-83
2021/06/07 01:18:33;;;;;;;25.77;23.20;;;16.50;99.90;;;;;;4944578;29;20670;-81
2021/06/07 01:21:02;;;;;;;26.67;21.85;;;16.60;99.90;;;;;;4962204;28;20229;-82
2021/06/07 01:23:31;;;;;;;26.13;23.55;;;16.60;99.90;;;;;;4961755;29;20621;-82
2021/06/07 01:26:01;;;;;;;23.38;21.15;;;16.60;99.90;;;;;;4962364;28;20249;-83
2021/06/07 01:28:29;;;;;;;25.48;23.00;;;16.50;99.90;;;;;;4961287;28;20216;-82
2021/06/07 01:30:58;;;;;;;23.67;21.38;;;16.60;99.90;;;;;;4960983;28;20721;-83
2021/06/07 01:33:27;;;;;;;21.73;19.83;;;16.40;99.90;;;;;;4951732;29;20228;-83
2021/06/07 01:35:55;;;;;;;23.83;20.23;;;16.50;99.90;;;;;;4960154;28;20214;-82
2021/06/07 01:38:22;;;;;;;23.23;20.95;;;16.60;99.90;;;;;;4961841;29;20253;-83
2021/06/07 01:40:51;;;;;;;22.15;19.88;;;16.30;99.90;;;;;;4944363;29;20276;-82
2021/06/07 01:43:18;;;;;;;24.55;19.52;;;16.30;99.90;;;;;;4943393;29;20687;-83
2021/06/07 01:45:53;;;;;;;22.90;20.50;;;16.40;99.90;;;;;;4909632;29;20250;-83
2021/06/07 01:48:23;;;;;;;21.88;19.83;;;16.40;99.90;;;;;;4942337;29;20199;-83
2021/06/07 01:50:51;;;;;;;19.58;17.77;;;16.50;99.90;;;;;;4925157;29;20223;-82
2021/06/07 01:53:20;;;;;;;21.67;19.38;;;16.60;99.90;;;;;;4924777;29;20701;-82
2021/06/07 01:55:50;;;;;;;24.88;22.38;;;16.50;99.90;;;;;;4940638;29;20270;-82
2021/06/07 01:58:19;;;;;;;25.15;22.63;;;16.50;99.90;;;;;;4940903;29;20211;-83
2021/06/07 02:00:48;;;;;;;26.33;23.55;;;16.40;99.90;;;;;;4941371;29;20192;-83
2021/06/07 02:03:18;;;;;;;31.98;28.95;;;16.30;99.90;;;;;;4941105;29;20226;-82
2021/06/07 02:05:48;;;;;;;29.45;26.42;;;16.40;99.90;;;;;;4941990;29;20275;-83
2021/06/07 02:08:17;;;;;;;32.10;28.88;;;16.20;99.90;;;;;;4907532;29;20204;-82
2021/06/07 02:10:49;;;;;;;31.70;28.83;;;16.10;99.90;;;;;;4923212;29;20219;-81
2021/06/07 02:13:18;;;;;;;29.23;26.45;;;16.10;99.90;;;;;;4941375;28;20195;-82
2021/06/07 02:15:52;;;;;;;31.58;28.58;;;16.00;99.90;;;;;;4929424;29;20288;-81
2021/06/07 02:18:19;;;;;;;31.75;28.65;;;16.10;99.90;;;;;;4956787;29;20210;-81
2021/06/07 02:20:46;;;;;;;29.38;26.58;;;16.00;99.90;;;;;;4957828;29;20190;-81
2021/06/07 02:23:13;;;;;;;31.15;28.05;;;16.00;99.90;;;;;;4937733;29;20207;-82
2021/06/07 02:25:40;;;;;;;27.65;24.95;;;16.00;99.90;;;;;;4937453;29;20222;-82
2021/06/07 02:28:10;;;;;;;29.77;27.17;;;16.00;99.90;;;;;;4920125;29;20211;-82
2021/06/07 02:30:39;;;;;;;30.23;27.15;;;16.10;99.90;;;;;;4936098;29;20242;-82
2021/06/07 02:33:06;;;;;;;30.92;28.13;;;16.10;99.90;;;;;;4934216;29;20202;-82
2021/06/07 02:35:33;;;;;;;30.90;27.83;;;16.20;99.90;;;;;;4940306;29;20309;-82
2021/06/07 02:38:00;;;;;;;32.80;29.55;;;16.30;99.90;;;;;;4957596;29;20195;-82
2021/06/07 02:40:32;;;;;;;30.63;27.58;;;16.30;99.90;;;;;;4957693;28;20210;-82
2021/06/07 02:43:00;;;;;;;30.92;27.85;;;16.20;99.90;;;;;;4925899;29;20227;-79
2021/06/07 02:45:28;;;;;;;31.83;28.80;;;16.10;99.90;;;;;;4958635;28;20792;-81
2021/06/07 02:47:59;;;;;;;32.03;29.05;;;16.00;99.90;;;;;;4959881;29;20214;-82
2021/06/07 02:50:29;;;;;;;31.08;28.08;;;16.00;99.90;;;;;;4942862;29;20570;-81
2021/06/07 02:52:56;;;;;;;33.65;30.27;;;16.10;99.90;;;;;;4965377;28;20257;-83
2021/06/07 02:55:26;;;;;;;32.45;29.23;;;16.30;99.90;;;;;;4942260;29;20230;-84
2021/06/07 02:57:54;;;;;;;29.40;26.40;;;16.00;99.90;;;;;;4947593;29;20220;-83
2021/06/07 03:00:24;;;;;;;29.67;26.95;;;15.90;99.90;;;;;;4937417;29;20597;-84
2021/06/07 03:02:50;;;;;;;28.08;25.48;;;15.90;99.90;;;;;;4922570;29;20215;-84
2021/06/07 03:05:19;;;;;;;33.22;29.92;;;15.80;99.90;;;;;;4921678;29;20203;-83
2021/06/07 03:07:46;;;;;;;27.40;24.23;;;15.90;99.90;;;;;;4939431;29;20203;-84
2021/06/07 03:10:14;;;;;;;27.45;24.77;;;15.90;99.90;;;;;;4939616;29;20199;-84
2021/06/07 03:12:41;;;;;;;28.83;25.92;;;15.80;99.90;;;;;;4939733;29;20222;-84
2021/06/07 03:15:10;;;;;;;28.90;26.00;;;15.80;99.90;;;;;;4939449;29;20214;-84
2021/06/07 03:17:37;;;;;;;33.47;30.05;;;15.80;99.90;;;;;;4940040;29;20682;-84
2021/06/07 03:20:05;;;;;;;34.03;30.77;;;15.80;99.90;;;;;;4940655;29;20206;-84
2021/06/07 03:22:33;;;;;;;33.60;30.13;;;15.90;99.90;;;;;;4939831;29;20210;-82
2021/06/07 03:25:00;;;;;;;31.75;28.38;;;15.90;99.90;;;;;;4938467;29;20199;-84
2021/06/07 03:27:27;;;;;;;29.08;26.27;;;15.80;99.90;;;;;;4939068;29;20283;-83
2021/06/07 03:29:53;;;;;;;30.08;26.98;;;15.60;99.90;;;;;;4920789;29;20235;-84
2021/06/07 03:32:20;;;;;;;35.15;31.45;;;15.70;99.90;;;;;;4941877;29;20728;-84
2021/06/07 03:34:47;;;;;;;34.38;30.88;;;15.50;99.90;;;;;;4939828;29;20204;-83
2021/06/07 03:37:13;;;;;;;33.47;29.90;;;15.60;99.90;;;;;;4940219;29;20225;-83
2021/06/07 03:39:42;;;;;;;33.65;30.25;;;15.60;99.90;;;;;;4938774;29;20221;-83
2021/06/07 03:42:09;;;;;;;32.22;29.00;;;15.60;99.90;;;;;;4939632;29;20219;-84
2021/06/07 03:44:35;;;;;;;32.03;28.65;;;15.40;99.90;;;;;;4923424;29;20203;-83
2021/06/07 03:47:03;;;;;;;30.17;27.02;;;15.40;99.90;;;;;;4923280;29;20262;-83
2021/06/07 03:49:29;;;;;;;29.83;26.92;;;15.10;99.90;;;;;;4922371;29;20226;-82
2021/06/07 03:51:56;;;;;;;33.33;29.95;;;15.00;99.90;;;;;;4941203;29;20220;-83
2021/06/07 03:54:23;;;;;;;33.28;29.90;;;15.10;99.90;;;;;;4923850;29;20199;-83
2021/06/07 03:56:51;;;;;;;32.50;29.13;;;15.10;99.90;;;;;;4940888;29;20223;-83
2021/06/07 03:59:18;;;;;;;33.85;30.35;;;15.20;99.90;;;;;;4941086;29;20210;-84
2021/06/07 04:01:46;;;;;;;32.67;29.20;;;15.10;99.90;;;;;;4924455;29;20577;-83
2021/06/07 04:04:13;;;;;;;31.63;27.50;;;15.00;99.90;;;;;;4941388;29;20286;-84
2021/06/07 04:06:40;;;;;;;28.80;25.77;;;14.90;99.90;;;;;;4942639;29;20227;-84
2021/06/07 04:09:07;;;;;;;30.10;27.05;;;14.90;99.90;;;;;;4944821;29;20199;-84
2021/06/07 04:11:34;;;;;;;29.77;26.40;;;15.00;99.90;;;;;;4944641;29;20223;-84
2021/06/07 04:14:02;;;;;;;30.05;27.10;;;14.70;99.90;;;;;;4927631;29;20207;-84
2021/06/07 04:16:28;;;;;;;32.72;29.33;;;14.80;99.90;;;;;;4944004;29;20659;-84
2021/06/07 04:18:55;;;;;;;30.55;26.17;;;15.20;99.90;;;;;;4944405;29;20199;-84
2021/06/07 04:21:22;;;;;;;31.73;28.67;;;15.10;99.90;;;;;;4944834;29;20215;-84
2021/06/07 04:23:48;;;;;;;31.00;28.02;;;15.10;99.90;;;;;;4927420;29;20206;-84
2021/06/07 04:26:15;;;;;;;32.05;28.85;;;15.20;99.90;;;;;;4927553;29;20219;-84
2021/06/07 04:28:42;;;;;;;28.67;25.52;;;15.10;99.90;;;;;;4943018;29;20214;-84
2021/06/07 04:31:10;;;;;;;29.83;26.67;;;15.40;99.90;;;;;;4944549;29;20220;-84
2021/06/07 04:33:37;;;;;;;30.45;27.15;;;15.40;99.90;;;;;;4927229;29;20318;-84
2021/06/07 04:36:04;;;;;;;32.60;29.75;;;15.40;99.90;;;;;;4928276;29;20219;-84
2021/06/07 04:38:31;;;;;;;31.42;28.30;;;15.50;99.90;;;;;;4960079;29;20199;-84
2021/06/07 04:40:58;;;;;;;30.98;28.00;;;15.40;99.90;;;;;;4919060;29;20206;-84
2021/06/07 04:43:24;;;;;;;28.95;25.95;;;15.50;99.90;;;;;;4911084;29;20801;-84
2021/06/07 04:45:51;;;;;;;28.50;25.55;;;15.50;99.90;;;;;;4910955;29;20291;-84
2021/06/07 04:48:19;;;;;;;29.23;26.38;;;15.60;99.90;;;;;;4926734;29;20200;-84
2021/06/07 04:50:46;;;;;;;29.48;26.40;;;15.70;99.90;;;;;;4926284;29;20234;-84
2021/06/07 04:53:14;;;;;;;31.30;28.35;;;15.80;99.90;;;;;;4942982;29;20207;-83
2021/06/07 04:55:42;;;;;;;27.83;25.27;;;16.20;99.90;;;;;;4953046;28;20222;-84
2021/06/07 04:58:10;;;;;;;30.40;27.67;;;16.00;99.90;;;;;;4945296;29;20261;-84
2021/06/07 05:00:39;;;;;;;30.42;27.65;;;16.10;99.90;;;;;;4944977;29;20554;-83
2021/06/07 05:03:06;;;;;;;33.22;30.15;;;16.00;99.90;;;;;;4944916;28;20230;-84
2021/06/07 05:05:35;;;;;;;33.17;30.13;;;16.00;99.90;;;;;;4945375;29;20234;-84
2021/06/07 05:08:03;;;;;;;29.70;27.08;;;16.00;99.90;;;;;;4944503;29;20210;-84
2021/06/07 05:10:30;;;;;;;28.55;25.95;;;16.10;99.90;;;;;;4960999;29;20210;-84
2021/06/07 05:12:57;;;;;;;28.55;25.85;;;16.00;99.90;;;;;;4959955;29;20276;-84
2021/06/07 05:15:24;;;;;;;28.92;26.30;;;16.00;99.90;;;;;;4943249;29;20218;-84
2021/06/07 05:17:51;;;;;;;29.30;26.55;;;16.00;99.90;;;;;;4960648;28;20230;-84
2021/06/07 05:20:19;;;;;;;28.13;25.58;;;16.10;99.90;;;;;;4959525;28;20214;-84
2021/06/07 05:22:48;;;;;;;28.65;26.13;;;16.10;99.90;;;;;;4943731;29;20240;-84
2021/06/07 05:25:15;;;;;;;31.00;28.23;;;16.20;99.90;;;;;;4943252;28;20206;-84
2021/06/07 05:27:48;;;;;;;34.63;31.42;;;16.40;99.90;;;;;;4943326;29;20227;-84
2021/06/07 05:30:16;;;;;;;36.15;32.85;;;16.50;99.90;;;;;;4958377;28;20211;-84
2021/06/07 05:32:43;;;;;;;39.22;35.35;;;16.70;99.90;;;;;;4956992;28;20230;-84
2021/06/07 05:35:12;;;;;;;37.50;33.72;;;16.60;99.90;;;;;;4938847;29;20204;-84
2021/06/07 05:37:39;;;;;;;35.15;31.75;;;16.60;99.90;;;;;;4939933;29;20290;-85
2021/06/07 05:40:09;;;;;;;32.90;29.70;;;16.60;99.90;;;;;;4925983;29;20200;-83
2021/06/07 05:42:36;;;;;;;35.08;31.60;;;16.40;99.90;;;;;;4938995;29;20192;-83
2021/06/07 05:45:05;;;;;;;33.30;30.38;;;16.50;99.90;;;;;;4921074;29;20229;-83
2021/06/07 05:47:31;;;;;;;33.05;29.98;;;16.40;99.90;;;;;;4938793;29;20223;-84
2021/06/07 05:49:58;;;;;;;27.02;24.58;;;16.60;99.90;;;;;;4939807;29;20786;-83
2021/06/07 05:52:25;;;;;;;31.25;28.30;;;16.60;99.90;;;;;;4938745;29;20226;-83
2021/06/07 05:54:52;;;;;;;30.15;27.33;;;16.60;99.90;;;;;;4921664;29;20207;-84
2021/06/07 05:57:20;;;;;;;31.30;28.48;;;16.90;99.90;;;;;;4943215;29;20247;-84
2021/06/07 05:59:47;;;;;;;29.02;25.85;;;16.90;99.90;;;;;;4953725;29;20183;-85
2021/06/07 06:02:14;;;;;;;28.42;25.63;;;16.90;99.90;;;;;;4946387;29;20195;-84
2021/06/07 06:04:41;;;;;;;27.65;25.00;;;17.00;99.90;;;;;;4940505;29;20805;-84
2021/06/07 06:07:08;;;;;;;24.92;22.55;;;17.00;99.90;;;;;;4931013;29;20744;-85
2021/06/07 06:09:36;;;;;;;27.77;25.08;;;16.80;99.90;;;;;;4942544;29;20724;-84
2021/06/07 06:12:03;;;;;;;24.05;21.65;;;16.90;99.90;;;;;;4910375;29;20227;-84
2021/06/07 06:14:31;;;;;;;23.63;21.60;;;16.90;99.90;;;;;;4925732;29;20199;-84
2021/06/07 06:16:58;;;;;;;23.92;21.52;;;16.70;99.90;;;;;;4943156;29;20225;-84
2021/06/07 06:19:24;;;;;;;27.63;24.77;;;16.70;99.90;;;;;;4943625;29;20674;-83
2021/06/07 06:21:52;;;;;;;26.20;23.60;;;16.70;99.90;;;;;;4947811;29;20196;-85
2021/06/07 06:24:19;;;;;;;23.80;21.63;;;16.70;99.90;;;;;;4949899;29;20287;-83
2021/06/07 06:26:46;;;;;;;28.05;25.23;;;16.60;99.90;;;;;;4950121;29;20263;-84
2021/06/07 06:29:13;;;;;;;28.02;25.20;;;16.40;99.90;;;;;;4943968;29;20211;-84
2021/06/07 06:31:41;;;;;;;28.42;25.58;;;16.40;99.90;;;;;;4943419;29;20400;-84
2021/06/07 06:34:08;;;;;;;28.05;25.33;;;16.40;99.90;;;;;;4943678;29;20199;-84
2021/06/07 06:36:36;;;;;;;27.63;24.92;;;16.30;99.90;;;;;;4928128;29;20219;-84
2021/06/07 06:39:04;;;;;;;25.63;23.23;;;16.40;99.90;;;;;;4926960;29;20203;-84
2021/06/07 06:41:31;;;;;;;30.63;27.58;;;16.50;99.90;;;;;;4938150;29;20203;-81
2021/06/07 06:43:58;;;;;;;27.77;24.95;;;16.40;99.90;;;;;;4939325;29;20223;-81
2021/06/07 06:46:24;;;;;;;30.52;26.33;;;16.30;99.90;;;;;;4936051;29;20305;-81
2021/06/07 06:48:53;;;;;;;25.10;22.80;;;16.30;99.90;;;;;;4939004;29;20199;-81
2021/06/07 06:51:19;;;;;;;27.67;25.05;;;16.30;99.90;;;;;;4940562;29;20725;-81
2021/06/07 06:53:46;;;;;;;27.38;24.63;;;16.60;99.90;;;;;;4941936;29;20569;-81
2021/06/07 06:56:13;;;;;;;26.67;24.27;;;16.60;99.90;;;;;;4953214;29;20250;-80
2021/06/07 06:58:39;;;;;;;29.95;26.90;;;16.60;99.90;;;;;;4957255;29;20294;-80
2021/06/07 07:01:07;;;;;;;31.80;28.70;;;16.60;99.90;;;;;;4957649;29;20210;-80
2021/06/07 07:03:34;;;;;;;31.75;28.25;;;16.60;99.90;;;;;;4958842;28;20219;-80
2021/06/07 07:06:02;;;;;;;30.15;27.15;;;16.50;99.90;;;;;;4944937;29;20227;-80
2021/06/07 07:08:29;;;;;;;27.67;24.75;;;16.40;99.90;;;;;;4944749;29;20199;-80
2021/06/07 07:10:57;;;;;;;29.33;26.42;;;16.50;99.90;;;;;;4949331;29;20230;-81
2021/06/07 07:13:24;;;;;;;28.20;25.25;;;16.60;99.90;;;;;;4958830;29;20207;-80
2021/06/07 07:15:50;;;;;;;25.63;23.27;;;16.40;99.90;;;;;;4946970;29;20243;-81
2021/06/07 07:18:18;;;;;;;27.08;24.58;;;16.30;99.90;;;;;;4951030;29;20206;-81
2021/06/07 07:20:45;;;;;;;30.05;25.75;;;16.50;99.90;;;;;;4940685;29;20196;-83
2021/06/07 07:23:13;;;;;;;30.30;27.42;;;16.80;99.90;;;;;;4954432;29;20229;-81
2021/06/07 07:25:41;;;;;;;29.83;26.98;;;17.00;99.90;;;;;;4955178;29;20307;-82
2021/06/07 07:28:10;;;;;;;26.25;23.80;;;17.10;99.90;;;;;;4955078;29;20684;-81
2021/06/07 07:30:38;;;;;;;27.73;24.98;;;17.10;99.90;;;;;;4963820;29;20283;-82
2021/06/07 07:33:06;;;;;;;29.20;26.20;;;17.00;99.90;;;;;;4961436;29;20215;-81
2021/06/07 07:35:34;;;;;;;26.70;24.27;;;17.20;99.90;;;;;;4949582;29;20226;-81
2021/06/07 07:38:01;;;;;;;26.15;23.42;;;16.80;99.90;;;;;;4948300;29;20202;-81
2021/06/07 07:40:30;;;;;;;27.38;24.67;;;16.50;99.90;;;;;;4949719;29;20207;-81
2021/06/07 07:42:57;;;;;;;27.98;25.27;;;16.40;99.90;;;;;;4965580;28;20600;-81
2021/06/07 07:45:26;;;;;;;27.02;24.33;;;16.50;99.90;;;;;;4952532;29;20258;-81
2021/06/07 07:47:53;;;;;;;24.95;22.58;;;16.70;99.90;;;;;;4951155;29;20263;-81
2021/06/07 07:50:21;;;;;;;29.40;26.25;;;16.70;99.90;;;;;;4942856;29;20234;-81
2021/06/07 07:52:48;;;;;;;27.63;25.05;;;17.00;99.90;;;;;;4963242;28;20258;-81
2021/06/07 07:55:19;;;;;;;30.50;27.20;;;17.00;99.90;;;;;;4969850;28;20203;-81
2021/06/07 07:57:51;;;;;;;27.63;25.05;;;17.00;99.90;;;;;;4953557;29;20207;-82
2021/06/07 08:00:20;;;;;;;26.23;23.60;;;16.60;99.90;;;;;;4964429;28;20209;-81
2021/06/07 08:02:46;;;;;;;25.88;23.38;;;16.60;99.90;;;;;;4965925;29;20205;-80
2021/06/07 08:05:13;;;;;;;27.98;25.08;;;16.40;99.90;;;;;;4954495;28;20199;-80
2021/06/07 08:07:40;;;;;;;26.23;23.55;;;16.50;99.90;;;;;;4971432;29;20218;-80
2021/06/07 08:10:09;;;;;;;25.90;23.35;;;16.50;99.90;;;;;;4966036;28;20188;-79
2021/06/07 08:12:36;;;;;;;26.38;23.77;;;16.60;99.90;;;;;;4958227;29;20227;-82
2021/06/07 08:15:06;;;;;;;27.17;23.17;;;16.70;99.90;;;;;;4938225;29;20203;-83
2021/06/07 08:17:33;;;;;;;23.00;20.90;;;16.40;99.90;;;;;;4951208;28;20199;-83
2021/06/07 08:20:00;;;;;;;25.02;22.55;;;16.30;99.90;;;;;;4944602;29;20273;-83
2021/06/07 08:22:27;;;;;;;26.60;24.20;;;16.60;99.90;;;;;;4953986;28;20202;-82
2021/06/07 08:24:53;;;;;;;27.17;24.27;;;16.70;99.90;;;;;;4947481;29;20211;-83
2021/06/07 08:27:20;;;;;;;24.20;21.83;;;16.70;99.90;;;;;;4948773;29;20216;-83
2021/06/07 08:29:46;;;;;;;27.58;24.98;;;16.90;99.90;;;;;;4943193;29;20199;-82
2021/06/07 08:32:14;;;;;;;29.35;26.40;;;17.10;99.90;;;;;;4937112;29;20217;-82
2021/06/07 08:34:41;;;;;;;28.02;25.17;;;17.10;99.90;;;;;;4938349;29;20222;-82
2021/06/07 08:37:07;;;;;;;31.80;28.55;;;16.80;99.90;;;;;;4952264;28;20226;-83
2021/06/07 08:39:34;;;;;;;30.25;27.15;;;16.80;99.90;;;;;;4919580;29;20195;-81
2021/06/07 08:42:02;;;;;;;30.25;27.15;;;16.90;99.90;;;;;;4948084;28;20198;-82
2021/06/07 08:44:29;;;;;;;29.23;26.25;;;16.90;99.90;;;;;;4966092;28;20213;-82
2021/06/07 08:46:56;;;;;;;27.98;25.00;;;17.20;99.90;;;;;;4944109;29;20781;-81
2021/06/07 08:49:25;;;;;;;27.95;25.15;;;17.20;99.90;;;;;;4962664;29;20202;-82
2021/06/07 08:51:52;;;;;;;29.58;26.52;;;17.40;99.90;;;;;;4966425;28;20230;-82
2021/06/07 08:54:19;;;;;;;27.55;24.75;;;17.70;99.90;;;;;;4959928;29;20211;-82
2021/06/07 08:56:47;;;;;;;26.77;24.05;;;17.80;99.90;;;;;;4949354;29;20250;-81
2021/06/07 08:59:14;;;;;;;28.00;25.08;;;17.80;99.90;;;;;;4933688;29;20206;-82
2021/06/07 09:01:42;;;;;;;25.42;23.00;;;18.10;99.90;;;;;;4934267;29;20218;-81
2021/06/07 09:04:14;;;;;;;23.90;21.50;;;18.40;99.90;;;;;;4952370;29;20195;-82
2021/06/07 09:06:46;;;;;;;25.50;22.85;;;18.40;99.90;;;;;;4969985;28;20234;-82
2021/06/07 09:09:14;;;;;;;25.55;23.00;;;18.40;99.90;;;;;;4969889;28;20210;-82
2021/06/07 09:11:43;;;;;;;25.83;23.13;;;18.50;99.90;;;;;;4958253;29;20235;-82
2021/06/07 09:14:19;;;;;;;26.42;23.80;;;18.70;99.90;;;;;;4957154;29;20650;-81
2021/06/07 09:16:46;;;;;;;29.88;26.83;;;18.80;99.90;;;;;;4954666;29;20222;-82
2021/06/07 09:19:25;;;;;;;26.60;24.00;;;19.20;99.90;;;;;;4951569;29;20294;-81
2021/06/07 09:21:56;;;;;;;23.17;20.80;;;19.10;99.90;;;;;;4950786;29;20619;-82
2021/06/07 09:24:23;;;;;;;22.73;20.48;;;19.00;99.90;;;;;;4945590;29;20227;-82
2021/06/07 09:26:50;;;;;;;24.45;22.08;;;18.90;99.90;;;;;;4949873;29;20230;-82
2021/06/07 09:29:36;;;;;;;23.80;21.55;;;18.80;99.90;;;;;;4941881;29;20278;-82
2021/06/07 09:32:04;;;;;;;22.90;20.80;;;18.70;99.90;;;;;;4948476;29;20214;-82
2021/06/07 09:34:34;;;;;;;22.80;20.60;;;18.90;99.90;;;;;;4952071;29;20222;-82
2021/06/07 09:37:08;;;;;;;22.48;20.33;;;19.10;99.90;;;;;;4953208;28;20737;-82
2021/06/07 09:39:35;;;;;;;23.95;21.75;;;19.20;99.90;;;;;;4931818;29;20211;-81
2021/06/07 09:42:04;;;;;;;24.50;22.10;;;19.30;99.90;;;;;;4942046;29;20206;-82
2021/06/07 09:44:38;;;;;;;24.00;21.63;;;19.40;99.90;;;;;;4954243;29;20695;-82
2021/06/07 09:47:15;;;;;;;25.80;23.30;;;19.60;99.90;;;;;;4931008;29;20222;-84
2021/06/07 09:49:44;;;;;;;25.08;21.95;;;19.50;99.90;;;;;;4948468;29;20290;-83
2021/06/07 09:52:15;;;;;;;23.23;21.02;;;19.50;99.90;;;;;;4941901;29;20233;-82
2021/06/07 09:54:43;;;;;;;26.33;21.00;;;19.70;99.90;;;;;;4947520;29;20199;-81
2021/06/07 09:57:09;;;;;;;24.15;21.75;;;19.60;99.90;;;;;;4954328;28;20225;-81
2021/06/07 09:59:38;;;;;;;26.70;24.15;;;19.90;99.90;;;;;;4912794;29;20216;-80
2021/06/07 10:02:15;;;;;;;24.10;21.63;;;19.50;99.90;;;;;;4952081;29;20198;-80
2021/06/07 10:04:54;;;;;;;20.73;18.63;;;19.60;99.90;;;;;;4951655;29;20262;-81
2021/06/07 10:07:23;;;;;;;22.50;20.10;;;19.80;99.90;;;;;;4942914;29;20764;-81
2021/06/07 10:10:14;;;;;;;25.52;23.13;;;20.10;99.90;;;;;;4950660;29;20274;-80
2021/06/07 10:12:42;;;;;;;25.90;23.05;;;20.00;99.90;;;;;;4956925;29;20246;-81
2021/06/07 10:15:12;;;;;;;23.50;21.20;;;19.70;99.90;;;;;;4952437;29;20199;-80
2021/06/07 10:17:39;;;;;;;24.48;22.20;;;19.80;99.90;;;;;;4947658;29;20208;-78
2021/06/07 10:22:54;;;;;;;21.88;19.63;;;20.30;99.90;;;;;;4959082;29;20201;-79
2021/06/07 10:25:21;;;;;;;21.13;19.13;;;20.40;99.90;;;;;;4956561;29;20254;-79
2021/06/07 10:27:48;;;;;;;21.17;19.10;;;20.30;99.90;;;;;;4947051;29;20289;-80
2021/06/07 10:30:20;;;;;;;23.67;21.58;;;20.50;99.90;;;;;;4930007;29;20203;-79
2021/06/07 10:32:47;;;;;;;21.50;19.48;;;20.20;99.90;;;;;;4950228;29;20303;-79
2021/06/07 10:35:29;;;;;;;23.42;21.05;;;20.20;99.90;;;;;;4948415;29;20203;-79
2021/06/07 10:38:08;;;;;;;21.88;19.85;;;20.70;99.90;;;;;;4935031;29;20203;-79
2021/06/07 10:40:38;;;;;;;24.23;21.65;;;20.50;99.90;;;;;;4948195;29;20222;-79
2021/06/07 10:43:07;;;;;;;21.83;19.63;;;20.60;99.90;;;;;;4958690;29;20191;-79
2021/06/07 10:45:36;;;;;;;27.20;24.40;;;20.80;99.90;;;;;;4955482;29;20246;-79
2021/06/07 10:48:04;;;;;;;25.33;22.33;;;21.00;99.90;;;;;;4947415;29;20223;-79
2021/06/07 10:50:33;;;;;;;27.45;24.63;;;20.70;99.90;;;;;;4946795;29;20232;-79
2021/06/07 10:53:03;;;;;;;24.73;21.75;;;20.90;99.90;;;;;;4945360;29;20583;-78
2021/06/07 10:55:32;;;;;;;24.15;21.75;;;20.90;99.90;;;;;;4944246;29;20292;-80
2021/06/07 10:58:00;;;;;;;24.63;22.02;;;21.20;99.90;;;;;;4923660;29;20705;-78
2021/06/07 11:00:39;;;;;;;26.08;23.25;;;21.30;99.90;;;;;;4948706;29;20198;-80
2021/06/07 11:03:16;;;;;;;23.50;21.13;;;21.40;99.90;;;;;;4926342;29;20670;-78
2021/06/07 11:05:44;;;;;;;22.17;19.00;;;21.40;99.90;;;;;;4924326;29;20694;-80
2021/06/07 11:08:17;;;;;;;22.95;20.50;;;21.20;99.90;;;;;;4938474;29;20199;-76
2021/06/07 11:10:45;;;;;;;24.08;21.48;;;21.00;99.90;;;;;;4938273;29;20191;-78
2021/06/07 11:13:13;;;;;;;23.30;19.70;;;21.00;99.90;;;;;;4937959;29;20730;-77
2021/06/07 11:15:42;;;;;;;21.58;19.00;;;20.90;99.90;;;;;;4940412;29;20282;-78
2021/06/07 11:18:23;;;;;;;21.08;18.98;;;20.20;99.90;;;;;;4942815;29;20195;-78
2021/06/07 11:20:51;;;;;;;23.20;20.80;;;19.90;99.90;;;;;;4930511;29;20230;-78
2021/06/07 11:23:21;;;;;;;22.20;19.77;;;20.40;99.90;;;;;;4960196;28;20200;-77
2021/06/07 11:25:51;;;;;;;20.90;18.77;;;20.50;99.90;;;;;;4946737;28;20249;-75
2021/06/07 11:28:40;;;;;;;21.67;18.20;;;20.70;99.90;;;;;;4941431;29;20203;-79
2021/06/07 11:31:52;;;;;;;21.38;18.40;;;20.80;99.90;;;;;;4942932;29;20195;-79
2021/06/07 11:34:43;;;;;;;21.55;18.08;;;20.70;99.90;;;;;;4947997;29;20588;-78
2021/06/07 11:37:12;;;;;;;25.15;22.67;;;20.60;99.90;;;;;;4940800;28;20234;-80
2021/06/07 11:39:52;;;;;;;30.63;22.52;;;20.70;99.90;;;;;;4954212;28;20245;-79
2021/06/07 11:42:25;;;;;;;25.23;22.65;;;20.60;99.90;;;;;;4942364;29;20199;-77
2021/06/07 11:44:56;;;;;;;26.55;23.65;;;20.50;99.90;;;;;;4940366;29;20225;-78
2021/06/07 11:47:25;;;;;;;26.40;23.80;;;20.50;99.90;;;;;;4941202;29;20725;-76
2021/06/07 11:50:06;;;;;;;24.77;22.27;;;20.60;99.90;;;;;;4938863;29;20253;-76
2021/06/07 11:52:51;;;;;;;26.52;23.98;;;20.50;99.90;;;;;;4942037;28;20223;-76
2021/06/07 11:55:28;;;;;;;26.48;23.77;;;20.50;99.90;;;;;;4957156;28;20229;-77
2021/06/07 11:58:07;;;;;;;26.13;23.73;;;20.80;99.90;;;;;;4935572;29;20210;-76
2021/06/07 12:00:35;;;;;;;24.80;22.50;;;20.90;99.90;;;;;;4924491;29;20202;-76
2021/06/07 12:03:16;;;;;;;26.65;24.10;;;20.60;99.90;;;;;;4910586;29;20265;-76
2021/06/07 12:05:42;;;;;;;28.20;25.50;;;20.70;99.90;;;;;;4939475;29;20306;-75
2021/06/07 12:08:10;;;;;;;23.95;21.52;;;21.00;99.90;;;;;;4949847;29;20289;-77
2021/06/07 12:10:40;;;;;;;26.65;24.08;;;21.20;99.90;;;;;;4941205;29;20650;-76
2021/06/07 12:13:17;;;;;;;21.27;19.20;;;21.50;99.90;;;;;;4939064;29;20829;-77
2021/06/07 12:15:49;;;;;;;22.27;18.33;;;21.40;99.90;;;;;;4922772;29;20266;-76
2021/06/07 12:18:28;;;;;;;21.25;19.15;;;21.50;99.90;;;;;;4939005;29;20231;-77
2021/06/07 12:20:59;;;;;;;25.83;23.10;;;21.70;99.90;;;;;;4939465;29;20377;-77
2021/06/07 12:23:29;;;;;;;27.58;24.67;;;21.80;99.90;;;;;;4938928;29;20239;-77
2021/06/07 12:28:41;;;;;;;29.42;26.00;;;21.50;99.90;;;;;;4923711;29;20572;-77
2021/06/07 12:31:08;;;;;;;25.27;22.67;;;21.40;99.90;;;;;;4944842;29;20195;-77
2021/06/07 12:33:36;;;;;;;26.13;23.52;;;21.40;99.90;;;;;;4938559;29;20301;-77
2021/06/07 12:36:04;;;;;;;28.13;24.55;;;21.70;99.90;;;;;;4938966;28;20246;-77
2021/06/07 12:38:38;;;;;;;26.30;23.60;;;21.80;99.90;;;;;;4936317;29;20203;-77
2021/06/07 12:41:06;;;;;;;25.88;23.17;;;21.90;99.90;;;;;;4919678;29;20204;-77
2021/06/07 12:43:41;;;;;;;22.08;19.88;;;21.80;99.90;;;;;;4920462;29;20192;-77